Terminal Aerodrome Forecast
Issued by NWS Charleston, WV

Home | Current Version | Previous Version | Text Only | Print | Product List | Glossary On
Versions: 1 2 3 4 5 6 7 8 9 10 11 12 13 14 15 16 17 18 19 20 21 22 23 24
000
FTUS41 KRLX 312300
TAFEKN
TAF
KEKN 312339Z 0100/0124 00000KT P6SM SCT040
     FM010600 00000KT 6SM BR SCT040
     FM010800 00000KT 5SM BR BKN040
     FM011300 00000KT 6SM BR VCTS BKN040CB
     FM011600 VRB03KT P6SM SHRA VCTS BKN035CB
     FM011700 15004KT 5SM SHRA BR VCTS BKN035CB
     FM012100 14005KT 4SM SHRA BR BKN040=

USA.gov is the U.S. government's official web portal to all federal, state and local government web resources and services.